Time;durP1;ratioP1;P1;durP2;ratioP2;P2;SDS_P1;SDS_P2;PMS_P1;PMS_P2;Temp;Humidity;BMP_temperature;BMP_pressure;BME280_temperature;BME280_humidity;BME280_pressure;Samples;Min_cycle;Max_cycle;Signal;HPM_P1;HPM_P2
2021/01/17 00:00:18;;;;;;;11.27;8.93;;;4.20;79.40;;;;;;4900643;29;20039;-80
2021/01/17 00:02:45;;;;;;;12.95;9.63;;;4.20;79.40;;;;;;4942992;28;20049;-81
2021/01/17 00:05:12;;;;;;;10.82;8.23;;;4.20;79.40;;;;;;4939372;28;20089;-80
2021/01/17 00:07:39;;;;;;;11.13;8.13;;;4.20;79.40;;;;;;4979814;28;20129;-81
2021/01/17 00:10:07;;;;;;;10.30;7.50;;;4.20;79.40;;;;;;4918872;28;20050;-81
2021/01/17 00:12:33;;;;;;;10.15;7.57;;;4.20;79.40;;;;;;4955959;28;20495;-80
2021/01/17 00:14:59;;;;;;;11.00;8.48;;;4.20;79.40;;;;;;4937461;28;20027;-81
2021/01/17 00:17:27;;;;;;;10.05;7.75;;;4.20;79.40;;;;;;4934034;28;20046;-81
2021/01/17 00:19:56;;;;;;;10.52;8.48;;;4.20;79.40;;;;;;4944551;28;20471;-81
2021/01/17 00:22:23;;;;;;;11.20;8.50;;;4.20;79.40;;;;;;4930934;28;20488;-80
2021/01/17 00:24:49;;;;;;;10.38;7.85;;;4.20;79.50;;;;;;4938497;28;20561;-79
2021/01/17 00:27:15;;;;;;;12.55;9.10;;;4.20;79.40;;;;;;4951390;28;20031;-81
2021/01/17 00:29:45;;;;;;;11.20;8.30;;;4.20;79.40;;;;;;4968263;28;20019;-79
2021/01/17 00:32:14;;;;;;;11.32;8.77;;;4.20;79.40;;;;;;4949292;28;20039;-81
2021/01/17 00:34:40;;;;;;;10.50;8.23;;;4.20;79.40;;;;;;4933339;28;20038;-80
2021/01/17 00:37:07;;;;;;;11.35;8.32;;;4.20;79.40;;;;;;4949745;28;20019;-83
2021/01/17 00:39:33;;;;;;;11.98;8.93;;;4.20;79.40;;;;;;4951424;28;20084;-82
2021/01/17 00:42:01;;;;;;;11.48;8.57;;;4.20;79.50;;;;;;4927094;28;20039;-79
2021/01/17 00:44:27;;;;;;;10.48;7.60;;;4.20;79.50;;;;;;4940015;28;20050;-80
2021/01/17 00:46:53;;;;;;;11.10;8.80;;;4.20;79.50;;;;;;4951560;28;20479;-79
2021/01/17 00:49:19;;;;;;;10.43;8.15;;;4.20;79.50;;;;;;4952624;28;20066;-81
2021/01/17 00:51:45;;;;;;;10.25;7.85;;;4.20;79.50;;;;;;4944992;28;20431;-80
2021/01/17 00:54:13;;;;;;;11.45;8.55;;;4.10;79.40;;;;;;4949753;28;20035;-80
2021/01/17 00:56:39;;;;;;;11.60;8.63;;;4.10;79.40;;;;;;4943448;28;20031;-80
2021/01/17 00:59:07;;;;;;;12.90;10.25;;;4.20;79.50;;;;;;4943655;28;20125;-80
2021/01/17 01:01:38;;;;;;;11.32;7.72;;;4.20;79.50;;;;;;4976717;28;20039;-80
2021/01/17 01:04:05;;;;;;;10.90;7.95;;;4.20;79.50;;;;;;4949527;28;20039;-80
2021/01/17 01:06:31;;;;;;;11.20;8.05;;;4.10;79.40;;;;;;4943208;28;20491;-80
2021/01/17 01:08:57;;;;;;;11.60;8.63;;;4.10;79.40;;;;;;4943272;28;20066;-80
2021/01/17 01:11:23;;;;;;;13.18;9.65;;;4.20;79.50;;;;;;4958041;28;20150;-82
2021/01/17 01:13:49;;;;;;;11.88;8.65;;;4.10;79.40;;;;;;4943456;28;20066;-81
2021/01/17 01:16:17;;;;;;;11.68;8.48;;;4.20;79.50;;;;;;4974481;28;20027;-79
2021/01/17 01:18:44;;;;;;;12.40;8.85;;;4.20;79.50;;;;;;4954054;28;20138;-80
2021/01/17 01:21:11;;;;;;;11.80;8.85;;;4.20;79.50;;;;;;4959515;28;20050;-80
2021/01/17 01:23:37;;;;;;;11.27;8.43;;;4.10;79.50;;;;;;4961013;28;20117;-80
2021/01/17 01:26:03;;;;;;;11.45;8.77;;;4.20;79.50;;;;;;4953835;28;20114;-80
2021/01/17 01:28:28;;;;;;;12.85;8.52;;;4.20;79.50;;;;;;4953965;28;20473;-81
2021/01/17 01:30:55;;;;;;;11.07;8.13;;;4.20;79.50;;;;;;4945690;28;20386;-80
2021/01/17 01:33:22;;;;;;;12.25;8.40;;;4.10;79.50;;;;;;4960614;28;20030;-79
2021/01/17 01:35:48;;;;;;;10.98;8.27;;;4.20;79.50;;;;;;4958687;28;20121;-80
2021/01/17 01:38:14;;;;;;;11.68;8.48;;;4.10;79.50;;;;;;4958972;28;20116;-80
2021/01/17 01:40:40;;;;;;;11.52;8.73;;;4.10;79.50;;;;;;4942942;28;20073;-80
2021/01/17 01:43:06;;;;;;;11.13;8.02;;;4.10;79.50;;;;;;4971064;28;20027;-80
2021/01/17 01:45:32;;;;;;;10.95;8.15;;;4.10;79.50;;;;;;4928756;28;20039;-80
2021/01/17 01:47:58;;;;;;;11.65;8.40;;;4.10;79.50;;;;;;4943118;28;20030;-80
2021/01/17 01:50:24;;;;;;;12.10;9.02;;;4.10;79.50;;;;;;4946343;29;20126;-80
2021/01/17 01:52:51;;;;;;;12.98;9.30;;;4.10;79.40;;;;;;4941091;28;20034;-80
2021/01/17 01:55:17;;;;;;;12.77;9.57;;;4.10;79.50;;;;;;4943051;28;20033;-81
2021/01/17 01:57:43;;;;;;;12.75;8.93;;;4.10;79.50;;;;;;4972468;28;20039;-81
2021/01/17 02:00:09;;;;;;;11.48;8.20;;;4.10;79.40;;;;;;4925903;28;20039;-80
2021/01/17 02:02:45;;;;;;;10.70;8.00;;;4.10;79.50;;;;;;4935853;28;20410;-81
2021/01/17 02:05:12;;;;;;;12.25;8.40;;;4.10;79.50;;;;;;4956540;28;20496;-81
2021/01/17 02:07:46;;;;;;;11.95;8.73;;;4.10;79.50;;;;;;4950537;29;20023;-81
2021/01/17 02:10:12;;;;;;;12.05;8.38;;;4.10;79.50;;;;;;4954324;28;20040;-80
2021/01/17 02:12:51;;;;;;;10.90;8.20;;;4.10;79.40;;;;;;4942015;28;20039;-80
2021/01/17 02:15:27;;;;;;;11.57;7.97;;;4.10;79.50;;;;;;4956402;28;20023;-79
2021/01/17 02:17:53;;;;;;;10.27;7.72;;;4.10;79.50;;;;;;4957021;28;20497;-80
2021/01/17 02:20:23;;;;;;;15.35;8.95;;;4.10;79.50;;;;;;4947719;28;20031;-80
2021/01/17 02:23:02;;;;;;;12.20;8.15;;;4.10;79.50;;;;;;4910306;28;20789;-81
2021/01/17 02:25:29;;;;;;;10.80;7.97;;;4.10;79.50;;;;;;4952242;28;20061;-80
2021/01/17 02:28:01;;;;;;;13.40;9.02;;;4.10;79.50;;;;;;4943504;28;20035;-81
2021/01/17 02:30:33;;;;;;;13.00;8.73;;;4.10;79.50;;;;;;4937203;28;20160;-80
2021/01/17 02:33:11;;;;;;;11.68;8.18;;;4.10;79.50;;;;;;4962425;28;20443;-80
2021/01/17 02:35:39;;;;;;;11.60;8.70;;;4.10;79.60;;;;;;4943519;28;20102;-81
2021/01/17 02:38:39;;;;;;;10.93;8.00;;;4.10;79.50;;;;;;4944515;28;20037;-80
2021/01/17 02:41:24;;;;;;;12.20;8.85;;;4.10;79.50;;;;;;4893263;29;20513;-80
2021/01/17 02:43:50;;;;;;;11.60;7.95;;;4.10;79.50;;;;;;4963488;28;20475;-80
2021/01/17 02:46:16;;;;;;;11.25;8.07;;;4.10;79.50;;;;;;4983615;28;20058;-80
2021/01/17 02:48:42;;;;;;;11.50;8.63;;;4.10;79.50;;;;;;4932984;28;20442;-80
2021/01/17 02:51:08;;;;;;;12.23;8.73;;;4.10;80.10;;;;;;4947665;28;20035;-80
2021/01/17 02:53:52;;;;;;;12.18;8.48;;;4.10;79.50;;;;;;4952569;28;20031;-82
2021/01/17 02:56:18;;;;;;;11.67;7.90;;;4.10;79.70;;;;;;4964183;28;20031;-80
2021/01/17 02:58:50;;;;;;;11.10;8.15;;;4.10;79.40;;;;;;4938310;28;20078;-80
2021/01/17 03:01:21;;;;;;;12.50;8.93;;;4.10;79.50;;;;;;4974416;28;20086;-80
2021/01/17 03:03:48;;;;;;;12.10;8.50;;;4.10;79.60;;;;;;4943005;28;20047;-79
2021/01/17 03:06:14;;;;;;;12.77;9.25;;;4.10;79.50;;;;;;4963983;28;20030;-80
2021/01/17 03:08:40;;;;;;;11.25;8.18;;;4.10;79.50;;;;;;4972768;28;20031;-79
2021/01/17 03:11:06;;;;;;;12.60;8.35;;;4.10;79.50;;;;;;4939075;28;20031;-80
2021/01/17 03:13:36;;;;;;;12.02;8.35;;;4.10;79.50;;;;;;4975517;28;20038;-80
2021/01/17 03:16:05;;;;;;;11.05;8.75;;;4.10;79.50;;;;;;4940831;28;20541;-80
2021/01/17 03:18:31;;;;;;;12.40;8.80;;;4.10;80.20;;;;;;4924427;28;20086;-80
2021/01/17 03:20:57;;;;;;;13.50;8.75;;;4.10;79.50;;;;;;4955558;28;20034;-81
2021/01/17 03:23:23;;;;;;;11.88;7.97;;;4.10;79.50;;;;;;4945199;28;20030;-80
2021/01/17 03:25:48;;;;;;;11.52;8.43;;;4.10;79.50;;;;;;4944170;28;20023;-79
2021/01/17 03:28:14;;;;;;;12.80;8.65;;;4.10;79.50;;;;;;4932883;28;20031;-80
2021/01/17 03:30:40;;;;;;;12.48;8.52;;;4.10;79.50;;;;;;4945449;28;20038;-79
2021/01/17 03:33:06;;;;;;;12.75;8.25;;;4.10;79.50;;;;;;4940009;28;20492;-79
2021/01/17 03:35:32;;;;;;;11.98;8.15;;;4.10;79.50;;;;;;4973733;28;20466;-79
2021/01/17 03:37:58;;;;;;;10.35;7.63;;;4.10;79.50;;;;;;4955983;28;20964;-80
2021/01/17 03:40:25;;;;;;;11.90;8.27;;;4.10;79.50;;;;;;4940901;28;20085;-79
2021/01/17 03:42:51;;;;;;;11.50;7.97;;;4.10;79.50;;;;;;4956120;28;20031;-80
2021/01/17 03:45:16;;;;;;;11.55;8.15;;;4.10;79.50;;;;;;4938920;28;20122;-80
2021/01/17 03:47:42;;;;;;;12.18;8.55;;;4.10;79.50;;;;;;4940527;28;20086;-80
2021/01/17 03:50:09;;;;;;;11.82;8.30;;;4.10;79.50;;;;;;4924269;28;20035;-79
2021/01/17 03:52:34;;;;;;;12.43;7.65;;;4.10;79.50;;;;;;4940890;28;20121;-80
2021/01/17 03:55:00;;;;;;;11.98;8.48;;;4.10;79.50;;;;;;4920258;28;20126;-80
2021/01/17 03:57:26;;;;;;;10.95;8.32;;;4.20;79.60;;;;;;4944501;28;20129;-79
2021/01/17 03:59:51;;;;;;;12.00;8.00;;;4.10;79.50;;;;;;4931385;28;20046;-80
2021/01/17 04:02:17;;;;;;;11.85;8.50;;;4.10;79.50;;;;;;4956293;28;20123;-79
2021/01/17 04:04:43;;;;;;;11.20;7.80;;;4.20;79.60;;;;;;4965619;28;20039;-79
2021/01/17 04:07:09;;;;;;;12.32;8.77;;;4.10;79.60;;;;;;4931385;28;20023;-80
2021/01/17 04:09:34;;;;;;;11.23;7.65;;;4.10;79.60;;;;;;4963095;28;20031;-79
2021/01/17 04:12:00;;;;;;;10.75;7.47;;;4.10;79.50;;;;;;4932815;28;20092;-80
2021/01/17 04:14:26;;;;;;;11.45;8.45;;;4.20;79.60;;;;;;4937088;29;20039;-79
2021/01/17 04:16:52;;;;;;;12.60;8.35;;;4.10;79.60;;;;;;4942157;28;20045;-80
2021/01/17 04:19:19;;;;;;;11.27;8.18;;;4.10;79.60;;;;;;4956470;28;20475;-79
2021/01/17 04:21:45;;;;;;;11.23;8.07;;;4.20;79.60;;;;;;4943601;28;20042;-79
2021/01/17 04:24:12;;;;;;;11.50;7.95;;;4.20;79.60;;;;;;4940278;28;20582;-79
2021/01/17 04:26:38;;;;;;;10.43;7.38;;;4.10;79.60;;;;;;4945232;28;20035;-80
2021/01/17 04:29:04;;;;;;;9.65;7.00;;;4.20;79.60;;;;;;4969465;28;20146;-79
2021/01/17 04:31:48;;;;;;;9.45;7.10;;;4.20;79.60;;;;;;4946948;28;20502;-79
2021/01/17 04:34:14;;;;;;;10.50;7.30;;;4.10;79.60;;;;;;4962851;28;20031;-79
2021/01/17 04:36:44;;;;;;;9.93;7.45;;;4.20;79.60;;;;;;4928799;28;20110;-79
2021/01/17 04:39:10;;;;;;;10.40;7.68;;;4.20;79.60;;;;;;4944554;28;20038;-80
2021/01/17 04:41:43;;;;;;;10.35;7.78;;;4.10;79.50;;;;;;4956352;28;20034;-80
2021/01/17 04:44:11;;;;;;;10.63;7.05;;;4.10;79.60;;;;;;4953193;28;20136;-79
2021/01/17 04:46:38;;;;;;;9.93;7.10;;;4.20;79.60;;;;;;4944748;28;20030;-79
2021/01/17 04:49:06;;;;;;;11.93;8.00;;;4.10;79.60;;;;;;4976359;28;20027;-80
2021/01/17 04:51:32;;;;;;;10.48;7.72;;;4.10;79.60;;;;;;4959578;28;20039;-79
2021/01/17 04:53:58;;;;;;;10.75;7.43;;;4.10;79.50;;;;;;4927614;28;20034;-79
2021/01/17 04:56:42;;;;;;;11.18;7.60;;;4.20;79.60;;;;;;4927725;28;20061;-80
2021/01/17 04:59:13;;;;;;;9.60;6.85;;;4.20;79.60;;;;;;4944024;28;20118;-79
2021/01/17 05:01:41;;;;;;;10.57;7.25;;;4.20;79.60;;;;;;4942997;28;20043;-79
2021/01/17 05:04:28;;;;;;;10.52;7.35;;;4.10;79.60;;;;;;4936298;29;20165;-79
2021/01/17 05:06:58;;;;;;;9.85;7.10;;;4.10;79.60;;;;;;4936382;29;20437;-80
2021/01/17 05:09:29;;;;;;;10.65;7.55;;;4.10;79.50;;;;;;4920363;29;20040;-79
2021/01/17 05:12:02;;;;;;;10.77;6.93;;;4.10;79.60;;;;;;4941817;29;20036;-79
2021/01/17 05:14:41;;;;;;;10.82;7.68;;;4.20;79.60;;;;;;4926383;29;20055;-80
2021/01/17 05:17:07;;;;;;;11.07;7.13;;;4.20;79.60;;;;;;4920453;29;20079;-79
2021/01/17 05:19:36;;;;;;;9.90;6.95;;;4.20;79.60;;;;;;4937568;29;20420;-79
2021/01/17 05:22:04;;;;;;;9.20;6.53;;;4.20;79.60;;;;;;4936223;29;20032;-79
2021/01/17 05:24:30;;;;;;;9.75;7.10;;;4.20;79.70;;;;;;4936442;29;20445;-79
2021/01/17 05:27:00;;;;;;;9.13;6.55;;;4.20;79.60;;;;;;4920705;29;20063;-80
2021/01/17 05:29:30;;;;;;;9.98;6.57;;;4.10;79.60;;;;;;4923519;29;20193;-80
2021/01/17 05:32:03;;;;;;;9.35;6.40;;;4.20;79.60;;;;;;4906436;29;20488;-79
2021/01/17 05:34:30;;;;;;;9.68;6.90;;;4.20;79.70;;;;;;4935735;29;20480;-79
2021/01/17 05:37:09;;;;;;;9.90;6.93;;;4.20;79.60;;;;;;4901615;29;20389;-79
2021/01/17 05:40:00;;;;;;;9.93;6.90;;;4.20;79.70;;;;;;4913863;29;20112;-79
2021/01/17 05:42:38;;;;;;;8.90;6.30;;;4.10;79.70;;;;;;4936419;29;20032;-77
2021/01/17 05:45:21;;;;;;;8.43;6.03;;;4.20;79.60;;;;;;4935965;29;20027;-79
2021/01/17 05:47:54;;;;;;;9.10;6.60;;;4.20;79.70;;;;;;4919908;29;20027;-79
2021/01/17 05:50:20;;;;;;;9.88;6.72;;;4.20;79.70;;;;;;4931496;28;20512;-79
2021/01/17 05:52:56;;;;;;;8.63;6.45;;;4.10;79.60;;;;;;4912960;29;20486;-78
2021/01/17 05:55:38;;;;;;;8.82;5.97;;;4.10;79.70;;;;;;4906934;29;20031;-78
2021/01/17 05:58:27;;;;;;;9.75;6.63;;;4.20;79.70;;;;;;4944114;29;20034;-79
2021/01/17 06:00:59;;;;;;;10.10;6.50;;;4.10;79.70;;;;;;4935393;29;20495;-79
2021/01/17 06:03:26;;;;;;;8.70;6.25;;;4.20;79.70;;;;;;4935289;29;20122;-80
2021/01/17 06:05:58;;;;;;;9.68;6.95;;;4.20;79.70;;;;;;4919845;29;20046;-79
2021/01/17 06:08:25;;;;;;;10.35;7.47;;;4.20;79.70;;;;;;4919788;29;20087;-79
2021/01/17 06:10:53;;;;;;;10.00;6.93;;;4.10;79.60;;;;;;4923458;29;20374;-79
2021/01/17 06:13:26;;;;;;;9.95;7.22;;;4.20;79.70;;;;;;4919582;29;20086;-79
2021/01/17 06:15:54;;;;;;;9.75;7.40;;;4.20;79.70;;;;;;4904294;29;20039;-79
2021/01/17 06:18:22;;;;;;;8.15;6.43;;;4.20;79.70;;;;;;4936773;29;20035;-79
2021/01/17 06:20:57;;;;;;;9.30;6.50;;;4.20;79.70;;;;;;4935867;29;20038;-79
2021/01/17 06:23:24;;;;;;;8.82;6.20;;;4.20;79.70;;;;;;4903917;29;20032;-79
2021/01/17 06:26:10;;;;;;;8.93;6.35;;;4.20;79.70;;;;;;4937384;29;20047;-79
2021/01/17 06:28:41;;;;;;;9.73;7.10;;;4.20;79.70;;;;;;4934839;29;20039;-80
2021/01/17 06:31:09;;;;;;;8.35;6.20;;;4.20;79.60;;;;;;4940792;29;20091;-80
2021/01/17 06:33:35;;;;;;;8.63;6.47;;;4.20;79.60;;;;;;4934880;29;20027;-80
2021/01/17 06:36:13;;;;;;;8.02;5.70;;;4.20;79.70;;;;;;4934622;29;20032;-79
2021/01/17 06:38:39;;;;;;;9.23;5.53;;;4.20;79.70;;;;;;4936334;29;20027;-80
2021/01/17 06:41:04;;;;;;;9.10;6.68;;;4.20;79.60;;;;;;4907603;29;20036;-79
2021/01/17 06:43:31;;;;;;;10.02;6.57;;;4.20;79.60;;;;;;4935418;29;20066;-79
2021/01/17 06:45:58;;;;;;;7.70;5.57;;;4.20;79.70;;;;;;4920690;29;20024;-80
2021/01/17 06:48:27;;;;;;;8.32;6.03;;;4.20;79.70;;;;;;4917735;29;20056;-79
2021/01/17 06:50:53;;;;;;;9.18;6.25;;;4.20;79.70;;;;;;4918214;29;20036;-79
2021/01/17 06:53:24;;;;;;;8.07;5.68;;;4.20;79.70;;;;;;4918248;29;20028;-79
2021/01/17 06:56:08;;;;;;;8.68;6.45;;;4.20;79.70;;;;;;4918997;29;20038;-80
2021/01/17 06:58:40;;;;;;;7.75;5.80;;;4.20;79.70;;;;;;4934260;29;20040;-79
2021/01/17 07:01:06;;;;;;;8.25;5.85;;;4.20;79.60;;;;;;4943543;29;20032;-79
2021/01/17 07:04:06;;;;;;;7.78;5.53;;;4.20;79.60;;;;;;4937965;28;20062;-79
2021/01/17 07:06:57;;;;;;;8.57;5.85;;;4.20;79.80;;;;;;4951811;28;20444;-79
2021/01/17 07:09:40;;;;;;;9.52;6.68;;;4.20;79.70;;;;;;4962013;28;20035;-79
2021/01/17 07:12:19;;;;;;;7.60;5.38;;;4.20;79.70;;;;;;4951955;28;20043;-79
2021/01/17 07:14:55;;;;;;;9.35;6.00;;;4.20;79.70;;;;;;4966902;28;20450;-81
2021/01/17 07:17:25;;;;;;;8.02;5.43;;;4.20;79.70;;;;;;4970398;28;20033;-80
2021/01/17 07:19:58;;;;;;;7.60;5.38;;;4.20;79.70;;;;;;4956506;28;20069;-79
2021/01/17 07:22:25;;;;;;;7.50;5.68;;;4.20;79.70;;;;;;4959942;28;20027;-79
2021/01/17 07:24:53;;;;;;;7.80;5.65;;;4.20;79.70;;;;;;4970020;28;20399;-79
2021/01/17 07:27:18;;;;;;;7.68;5.43;;;4.20;79.70;;;;;;4921243;29;20059;-79
2021/01/17 07:29:49;;;;;;;7.85;5.55;;;4.20;79.70;;;;;;4958426;28;20158;-80
2021/01/17 07:32:36;;;;;;;8.18;5.70;;;4.20;79.80;;;;;;4956628;28;20039;-79
2021/01/17 07:35:11;;;;;;;8.15;5.75;;;4.20;79.90;;;;;;4958225;28;20487;-80
2021/01/17 07:37:41;;;;;;;8.30;5.57;;;4.20;79.70;;;;;;4940634;28;20030;-80
2021/01/17 07:40:08;;;;;;;7.97;5.97;;;4.20;80.30;;;;;;4939932;28;20031;-80
2021/01/17 07:42:36;;;;;;;8.85;5.95;;;4.20;79.60;;;;;;4924640;28;20031;-79
2021/01/17 07:45:12;;;;;;;8.07;6.30;;;4.20;79.70;;;;;;4942273;28;20031;-80
2021/01/17 07:47:42;;;;;;;7.90;5.53;;;4.20;79.70;;;;;;4938899;28;20031;-79
2021/01/17 07:50:09;;;;;;;8.63;5.80;;;4.20;79.70;;;;;;4959910;28;20037;-79
2021/01/17 07:52:42;;;;;;;7.68;5.72;;;4.20;79.70;;;;;;4977102;28;20030;-79
2021/01/17 07:55:11;;;;;;;8.38;6.13;;;4.30;79.80;;;;;;4955065;28;20395;-79
2021/01/17 07:57:37;;;;;;;7.82;5.90;;;4.20;79.70;;;;;;4955945;28;20031;-79
2021/01/17 08:00:07;;;;;;;8.57;6.25;;;4.30;79.70;;;;;;4942319;28;20041;-80
2021/01/17 08:02:35;;;;;;;9.52;6.10;;;4.30;79.80;;;;;;4965655;28;20105;-79
2021/01/17 08:05:02;;;;;;;7.80;5.18;;;4.30;79.70;;;;;;4958981;28;20041;-79
2021/01/17 08:07:34;;;;;;;9.45;5.20;;;4.30;79.70;;;;;;4939013;28;20085;-79
2021/01/17 08:10:01;;;;;;;7.90;5.07;;;4.30;79.80;;;;;;4978471;28;20031;-79
2021/01/17 08:12:35;;;;;;;8.05;5.32;;;4.20;79.70;;;;;;4956085;28;20027;-80
2021/01/17 08:15:11;;;;;;;8.50;5.97;;;4.30;79.80;;;;;;4940827;28;20045;-80
2021/01/17 08:17:37;;;;;;;8.13;5.45;;;4.30;79.80;;;;;;4940962;28;20035;-79
2021/01/17 08:20:07;;;;;;;8.23;5.82;;;4.30;79.70;;;;;;4942961;28;20034;-79
2021/01/17 08:22:32;;;;;;;9.15;5.78;;;4.30;79.80;;;;;;4926360;28;20035;-80
2021/01/17 08:24:59;;;;;;;8.45;5.72;;;4.30;79.70;;;;;;4939866;28;20391;-79
2021/01/17 08:27:31;;;;;;;9.02;6.18;;;4.20;79.70;;;;;;4960064;28;20037;-79
2021/01/17 08:30:03;;;;;;;8.55;5.90;;;4.30;79.80;;;;;;4967700;28;20034;-80
2021/01/17 08:32:38;;;;;;;8.18;5.20;;;4.30;79.80;;;;;;4950143;28;20037;-79
2021/01/17 08:35:25;;;;;;;8.13;5.60;;;4.30;79.80;;;;;;4928073;28;20090;-79
2021/01/17 08:37:53;;;;;;;8.30;5.28;;;4.30;79.80;;;;;;4960647;28;20194;-79
2021/01/17 08:40:49;;;;;;;9.70;5.95;;;4.30;79.70;;;;;;4970575;28;20034;-80
2021/01/17 08:43:16;;;;;;;;;;;4.30;79.90;;;;;;4938967;28;20459;-79
2021/01/17 08:45:48;;;;;;;7.82;5.60;;;4.30;79.60;;;;;;4937003;28;19918;-80
2021/01/17 08:48:17;;;;;;;8.95;5.45;;;4.30;79.50;;;;;;4920786;29;20473;-80
2021/01/17 08:50:52;;;;;;;7.97;5.32;;;4.30;79.60;;;;;;4943137;28;20050;-79
2021/01/17 08:53:32;;;;;;;9.90;6.03;;;4.30;79.70;;;;;;4955429;28;20035;-79
2021/01/17 08:55:59;;;;;;;8.90;5.95;;;4.30;79.80;;;;;;4955636;28;20027;-79
2021/01/17 08:58:25;;;;;;;10.35;6.57;;;4.30;79.70;;;;;;4940665;28;20054;-79
2021/01/17 09:00:51;;;;;;;8.52;5.72;;;4.30;79.80;;;;;;4946985;29;20031;-79
2021/01/17 09:03:43;;;;;;;9.07;6.00;;;4.30;79.80;;;;;;4936057;28;20137;-79
2021/01/17 09:06:11;;;;;;;10.68;6.78;;;4.30;79.90;;;;;;4941013;28;20089;-82
2021/01/17 09:08:39;;;;;;;8.77;5.90;;;4.30;79.70;;;;;;4955763;28;20058;-80
2021/01/17 09:11:28;;;;;;;9.00;6.28;;;4.30;79.70;;;;;;4941020;28;20035;-79
2021/01/17 09:14:13;;;;;;;7.95;5.10;;;4.30;79.80;;;;;;4970059;28;20026;-79
2021/01/17 09:16:42;;;;;;;8.90;5.93;;;4.30;79.80;;;;;;4957322;28;20101;-76
2021/01/17 09:19:09;;;;;;;9.05;6.13;;;4.40;79.70;;;;;;4974465;28;20085;-77
2021/01/17 09:21:35;;;;;;;9.25;5.85;;;4.40;79.70;;;;;;4964953;28;20031;-80
2021/01/17 09:24:07;;;;;;;11.10;6.53;;;4.40;79.70;;;;;;4947708;28;20078;-77
2021/01/17 09:26:32;;;;;;;8.45;5.70;;;4.40;79.80;;;;;;4942034;28;20057;-77
2021/01/17 09:28:58;;;;;;;9.55;5.85;;;4.40;79.70;;;;;;4931396;28;20054;-78
2021/01/17 09:31:28;;;;;;;9.35;6.47;;;4.40;79.70;;;;;;4930957;28;20479;-77
2021/01/17 09:33:54;;;;;;;10.23;6.15;;;4.40;79.80;;;;;;4957463;28;20031;-77
2021/01/17 09:36:24;;;;;;;9.57;6.45;;;4.40;79.70;;;;;;4941516;28;20034;-79
2021/01/17 09:38:50;;;;;;;8.32;5.90;;;4.40;79.80;;;;;;4963172;28;20030;-78
2021/01/17 09:41:24;;;;;;;10.75;6.70;;;4.40;79.70;;;;;;4956676;28;20035;-80
2021/01/17 09:43:51;;;;;;;8.10;6.13;;;4.40;79.80;;;;;;4948933;28;20027;-78
2021/01/17 09:46:22;;;;;;;9.98;6.43;;;4.40;79.70;;;;;;4934159;28;20023;-79
2021/01/17 09:48:58;;;;;;;8.45;5.68;;;4.40;79.70;;;;;;4982018;28;20027;-78
2021/01/17 09:51:28;;;;;;;8.73;5.75;;;4.40;79.80;;;;;;4966762;28;20106;-79
2021/01/17 09:53:55;;;;;;;8.82;5.60;;;4.40;79.70;;;;;;4951560;28;20121;-78
2021/01/17 09:56:21;;;;;;;9.10;6.57;;;4.50;79.80;;;;;;4944371;28;20034;-79
2021/01/17 09:58:47;;;;;;;9.10;5.75;;;4.50;79.80;;;;;;4957458;28;20084;-79
2021/01/17 10:01:20;;;;;;;8.07;5.47;;;4.50;79.80;;;;;;4947049;28;20038;-78
2021/01/17 10:03:47;;;;;;;9.50;6.13;;;4.50;79.80;;;;;;4942220;28;20054;-79
2021/01/17 10:06:14;;;;;;;8.60;6.22;;;4.50;79.80;;;;;;4938423;29;20070;-77
2021/01/17 10:08:40;;;;;;;9.90;6.30;;;4.50;79.80;;;;;;4956238;28;20027;-77
2021/01/17 10:11:05;;;;;;;9.02;5.97;;;4.50;79.80;;;;;;4943071;28;20042;-77
2021/01/17 10:13:31;;;;;;;8.82;6.00;;;4.50;79.80;;;;;;4933028;28;20034;-77
2021/01/17 10:15:57;;;;;;;9.13;6.00;;;4.50;79.80;;;;;;4939916;28;20027;-77
2021/01/17 10:18:24;;;;;;;9.00;6.05;;;4.60;79.80;;;;;;4941135;28;20039;-77
2021/01/17 10:20:56;;;;;;;9.18;5.70;;;4.60;79.80;;;;;;4957859;28;20097;-77
2021/01/17 10:23:30;;;;;;;8.65;5.78;;;4.60;79.80;;;;;;4950440;28;20046;-77
2021/01/17 10:25:57;;;;;;;9.88;6.60;;;4.60;79.80;;;;;;4952084;28;20467;-77
2021/01/17 10:28:26;;;;;;;8.13;5.53;;;4.60;79.80;;;;;;4946194;28;20380;-79
2021/01/17 10:30:59;;;;;;;8.38;5.93;;;4.60;79.80;;;;;;4974989;28;20475;-77
2021/01/17 10:33:30;;;;;;;9.25;6.20;;;4.60;79.80;;;;;;4975122;28;20027;-77
2021/01/17 10:35:56;;;;;;;9.70;6.20;;;4.70;79.80;;;;;;4960941;28;20050;-78
2021/01/17 10:38:22;;;;;;;8.13;5.30;;;4.70;79.80;;;;;;4973936;28;20031;-77
2021/01/17 10:40:48;;;;;;;9.57;6.50;;;4.70;79.80;;;;;;4925607;28;20038;-77
2021/01/17 10:43:30;;;;;;;9.52;5.90;;;4.70;79.80;;;;;;4940903;28;20035;-77
2021/01/17 10:46:22;;;;;;;8.88;6.13;;;4.70;79.90;;;;;;4962714;28;20062;-77
2021/01/17 10:48:57;;;;;;;9.88;6.45;;;4.70;79.80;;;;;;4974517;28;20035;-77
2021/01/17 10:51:29;;;;;;;9.25;6.00;;;4.80;79.70;;;;;;4956308;28;20035;-77
2021/01/17 10:54:00;;;;;;;9.30;6.32;;;4.80;79.70;;;;;;4957241;28;20031;-77
2021/01/17 10:56:27;;;;;;;9.50;6.07;;;4.80;79.70;;;;;;4940557;28;20031;-77
2021/01/17 10:58:57;;;;;;;9.90;6.93;;;4.80;79.70;;;;;;4941122;28;20066;-76
2021/01/17 11:01:33;;;;;;;10.85;7.35;;;4.90;79.70;;;;;;4974002;28;20515;-77
2021/01/17 11:04:00;;;;;;;10.32;7.00;;;4.80;79.70;;;;;;4948731;29;20429;-75
2021/01/17 11:06:28;;;;;;;10.00;6.80;;;4.80;79.60;;;;;;4939464;29;20498;-75
2021/01/17 11:08:55;;;;;;;9.77;6.25;;;4.90;79.70;;;;;;4935548;29;20127;-76
2021/01/17 11:11:22;;;;;;;9.02;6.20;;;4.90;79.70;;;;;;4917497;29;20028;-75
2021/01/17 11:14:04;;;;;;;11.27;7.30;;;4.90;79.60;;;;;;4946999;29;20035;-75
2021/01/17 11:16:41;;;;;;;11.23;6.90;;;4.90;79.60;;;;;;4946570;29;20031;-75
2021/01/17 11:19:09;;;;;;;10.15;6.93;;;5.00;80.20;;;;;;4928374;29;20116;-77
2021/01/17 11:21:35;;;;;;;9.85;6.47;;;5.00;79.50;;;;;;4944495;29;20034;-75
2021/01/17 11:24:02;;;;;;;9.00;6.53;;;5.00;79.50;;;;;;4953439;29;20109;-75
2021/01/17 11:26:29;;;;;;;10.35;6.65;;;5.00;79.50;;;;;;4951932;28;20083;-77
2021/01/17 11:29:00;;;;;;;11.27;7.13;;;5.00;79.50;;;;;;4954254;29;20050;-77
2021/01/17 11:31:27;;;;;;;12.10;7.75;;;5.10;79.50;;;;;;4936747;29;20488;-78
2021/01/17 11:33:52;;;;;;;11.68;6.95;;;5.10;79.40;;;;;;4926115;29;20119;-77
2021/01/17 11:36:22;;;;;;;13.93;7.95;;;5.10;79.40;;;;;;4919413;29;20122;-77
2021/01/17 11:38:50;;;;;;;10.63;6.82;;;5.10;79.40;;;;;;4934558;29;20031;-76
2021/01/17 11:41:18;;;;;;;10.02;5.85;;;5.20;79.50;;;;;;4937271;29;20039;-77
2021/01/17 11:43:45;;;;;;;11.20;6.50;;;5.20;79.50;;;;;;4936826;29;20027;-77
2021/01/17 11:46:12;;;;;;;9.35;6.32;;;5.20;79.50;;;;;;4936147;29;20154;-76
2021/01/17 11:48:39;;;;;;;10.43;6.85;;;5.20;79.50;;;;;;4917478;29;20082;-76
2021/01/17 11:51:07;;;;;;;11.27;7.45;;;5.20;79.50;;;;;;4946275;29;20488;-76
2021/01/17 11:53:33;;;;;;;9.68;6.60;;;5.20;80.10;;;;;;4934093;29;20032;-76
2021/01/17 11:56:00;;;;;;;10.60;6.75;;;5.30;79.50;;;;;;4938836;29;20035;-77
2021/01/17 11:58:29;;;;;;;10.88;6.40;;;5.30;79.50;;;;;;4926573;29;20124;-76
2021/01/17 12:01:00;;;;;;;8.93;6.07;;;5.30;79.50;;;;;;4938896;29;20062;-78
2021/01/17 12:03:37;;;;;;;9.80;6.82;;;5.30;79.50;;;;;;4918377;29;20500;-77
2021/01/17 12:06:10;;;;;;;12.07;6.40;;;5.30;79.50;;;;;;4932140;29;20050;-77
2021/01/17 12:09:03;;;;;;;10.98;6.57;;;5.40;79.50;;;;;;4932949;29;20098;-78
2021/01/17 12:11:32;;;;;;;9.40;6.15;;;5.30;79.50;;;;;;4924358;29;20063;-77
2021/01/17 12:14:05;;;;;;;9.27;5.63;;;5.40;79.40;;;;;;4918053;29;20039;-78
2021/01/17 12:16:32;;;;;;;8.90;6.40;;;5.40;79.40;;;;;;4933694;29;20040;-77
2021/01/17 12:18:59;;;;;;;9.82;6.70;;;5.40;79.40;;;;;;4932245;29;20035;-77
2021/01/17 12:21:28;;;;;;;8.30;5.22;;;5.50;79.40;;;;;;4933077;29;20035;-77
2021/01/17 12:23:57;;;;;;;7.90;5.10;;;5.50;79.40;;;;;;4918140;29;20024;-78
2021/01/17 12:26:24;;;;;;;9.15;5.18;;;5.50;79.30;;;;;;4929746;29;20075;-77
2021/01/17 12:28:50;;;;;;;10.32;5.75;;;5.50;79.30;;;;;;4917363;29;20044;-77
2021/01/17 12:31:17;;;;;;;8.25;5.18;;;5.60;79.30;;;;;;4933505;29;20054;-77
2021/01/17 12:33:43;;;;;;;8.75;4.93;;;5.60;79.30;;;;;;4932925;29;20165;-78
2021/01/17 12:36:10;;;;;;;8.90;5.25;;;5.60;79.30;;;;;;4933467;29;20119;-77
2021/01/17 12:38:37;;;;;;;9.80;5.43;;;5.70;79.30;;;;;;4901473;29;20087;-77
2021/01/17 12:41:07;;;;;;;9.20;5.57;;;5.70;79.30;;;;;;4933268;29;20540;-78
2021/01/17 12:43:33;;;;;;;9.45;4.85;;;5.70;79.30;;;;;;4917605;29;20472;-78
2021/01/17 12:45:59;;;;;;;9.02;5.25;;;5.70;79.20;;;;;;4919448;29;20036;-77
2021/01/17 12:48:25;;;;;;;7.13;4.57;;;5.70;79.20;;;;;;4937073;29;20091;-78
2021/01/17 12:50:51;;;;;;;8.15;4.50;;;5.80;79.30;;;;;;4936556;29;20413;-77
2021/01/17 12:53:16;;;;;;;7.72;4.63;;;5.80;79.30;;;;;;4937086;29;20481;-77
2021/01/17 12:55:46;;;;;;;7.95;4.10;;;5.80;79.30;;;;;;4936676;29;20082;-78
2021/01/17 12:58:13;;;;;;;8.52;4.55;;;5.80;80.00;;;;;;4920892;29;20398;-78
2021/01/17 13:00:40;;;;;;;7.53;4.03;;;5.90;79.40;;;;;;4936469;29;20058;-77
2021/01/17 13:03:06;;;;;;;6.95;3.85;;;5.90;79.40;;;;;;4943760;28;20114;-78
2021/01/17 13:05:32;;;;;;;8.70;4.05;;;5.90;79.40;;;;;;4955727;29;20067;-79